sensor_id;sensor_type;location;lat;lon;timestamp;P1;durP1;ratioP1;P2;durP2;ratioP2
59571;SDS011;59406;45.602;11.904;2023-04-24T00:01:48;5.37;;;2.93;;
59571;SDS011;59406;45.602;11.904;2023-04-24T00:04:15;5.80;;;2.83;;
59571;SDS011;59406;45.602;11.904;2023-04-24T00:06:42;5.47;;;2.75;;
59571;SDS011;59406;45.602;11.904;2023-04-24T00:09:09;4.95;;;2.40;;
59571;SDS011;59406;45.602;11.904;2023-04-24T00:11:35;4.80;;;2.60;;
59571;SDS011;59406;45.602;11.904;2023-04-24T00:14:02;5.13;;;2.70;;
59571;SDS011;59406;45.602;11.904;2023-04-24T00:16:28;5.07;;;2.78;;
59571;SDS011;59406;45.602;11.904;2023-04-24T00:18:54;5.40;;;3.10;;
59571;SDS011;59406;45.602;11.904;2023-04-24T00:21:20;6.03;;;2.85;;
59571;SDS011;59406;45.602;11.904;2023-04-24T00:23:47;5.43;;;2.77;;
59571;SDS011;59406;45.602;11.904;2023-04-24T00:26:13;5.45;;;2.92;;
59571;SDS011;59406;45.602;11.904;2023-04-24T00:28:39;5.47;;;2.83;;
59571;SDS011;59406;45.602;11.904;2023-04-24T00:31:05;5.70;;;2.60;;
59571;SDS011;59406;45.602;11.904;2023-04-24T00:33:31;5.18;;;2.75;;
59571;SDS011;59406;45.602;11.904;2023-04-24T00:35:57;6.40;;;2.63;;
59571;SDS011;59406;45.602;11.904;2023-04-24T00:38:23;5.90;;;2.72;;
59571;SDS011;59406;45.602;11.904;2023-04-24T00:40:49;4.80;;;2.63;;
59571;SDS011;59406;45.602;11.904;2023-04-24T00:43:15;6.72;;;3.28;;
59571;SDS011;59406;45.602;11.904;2023-04-24T00:45:42;4.57;;;2.53;;
59571;SDS011;59406;45.602;11.904;2023-04-24T00:48:08;4.80;;;2.50;;
59571;SDS011;59406;45.602;11.904;2023-04-24T00:50:35;4.90;;;2.50;;
59571;SDS011;59406;45.602;11.904;2023-04-24T00:53:02;7.13;;;3.00;;
59571;SDS011;59406;45.602;11.904;2023-04-24T00:55:27;5.65;;;2.50;;
59571;SDS011;59406;45.602;11.904;2023-04-24T00:57:54;4.83;;;2.63;;
59571;SDS011;59406;45.602;11.904;2023-04-24T01:00:20;5.10;;;2.53;;
59571;SDS011;59406;45.602;11.904;2023-04-24T01:02:47;4.70;;;2.50;;
59571;SDS011;59406;45.602;11.904;2023-04-24T01:05:15;6.10;;;2.53;;
59571;SDS011;59406;45.602;11.904;2023-04-24T01:07:43;5.32;;;2.58;;
59571;SDS011;59406;45.602;11.904;2023-04-24T01:10:11;5.60;;;2.60;;
59571;SDS011;59406;45.602;11.904;2023-04-24T01:12:38;5.30;;;2.63;;
59571;SDS011;59406;45.602;11.904;2023-04-24T01:15:04;6.10;;;2.92;;
59571;SDS011;59406;45.602;11.904;2023-04-24T01:17:32;4.68;;;2.53;;
59571;SDS011;59406;45.602;11.904;2023-04-24T01:19:59;5.50;;;2.70;;
59571;SDS011;59406;45.602;11.904;2023-04-24T01:22:26;5.40;;;3.13;;
59571;SDS011;59406;45.602;11.904;2023-04-24T01:24:52;4.95;;;2.88;;
59571;SDS011;59406;45.602;11.904;2023-04-24T01:27:19;5.60;;;2.95;;
59571;SDS011;59406;45.602;11.904;2023-04-24T01:29:45;5.45;;;2.65;;
59571;SDS011;59406;45.602;11.904;2023-04-24T01:32:14;4.80;;;2.53;;
59571;SDS011;59406;45.602;11.904;2023-04-24T01:34:40;5.50;;;2.67;;
59571;SDS011;59406;45.602;11.904;2023-04-24T01:37:07;5.75;;;3.00;;
59571;SDS011;59406;45.602;11.904;2023-04-24T01:39:33;5.30;;;2.90;;
59571;SDS011;59406;45.602;11.904;2023-04-24T01:41:59;5.57;;;2.85;;
59571;SDS011;59406;45.602;11.904;2023-04-24T01:44:27;6.23;;;2.90;;
59571;SDS011;59406;45.602;11.904;2023-04-24T01:46:54;5.15;;;2.58;;
59571;SDS011;59406;45.602;11.904;2023-04-24T01:49:20;5.60;;;2.92;;
59571;SDS011;59406;45.602;11.904;2023-04-24T01:51:46;5.32;;;2.67;;
59571;SDS011;59406;45.602;11.904;2023-04-24T01:54:13;5.47;;;2.72;;
59571;SDS011;59406;45.602;11.904;2023-04-24T01:56:42;5.17;;;2.70;;
59571;SDS011;59406;45.602;11.904;2023-04-24T01:59:11;5.93;;;3.20;;
59571;SDS011;59406;45.602;11.904;2023-04-24T02:01:38;5.53;;;2.90;;
59571;SDS011;59406;45.602;11.904;2023-04-24T02:04:04;5.53;;;2.53;;
59571;SDS011;59406;45.602;11.904;2023-04-24T02:06:32;5.97;;;3.08;;
59571;SDS011;59406;45.602;11.904;2023-04-24T02:08:58;5.33;;;2.77;;
59571;SDS011;59406;45.602;11.904;2023-04-24T02:11:24;5.75;;;2.70;;
59571;SDS011;59406;45.602;11.904;2023-04-24T02:13:51;5.07;;;2.63;;
59571;SDS011;59406;45.602;11.904;2023-04-24T02:16:17;5.70;;;3.08;;
59571;SDS011;59406;45.602;11.904;2023-04-24T02:18:44;5.35;;;2.80;;
59571;SDS011;59406;45.602;11.904;2023-04-24T02:21:10;5.50;;;3.00;;
59571;SDS011;59406;45.602;11.904;2023-04-24T02:23:36;5.40;;;2.65;;
59571;SDS011;59406;45.602;11.904;2023-04-24T02:26:02;5.30;;;2.72;;
59571;SDS011;59406;45.602;11.904;2023-04-24T02:28:28;4.80;;;2.60;;
59571;SDS011;59406;45.602;11.904;2023-04-24T02:30:54;6.03;;;3.07;;
59571;SDS011;59406;45.602;11.904;2023-04-24T02:33:20;5.97;;;2.88;;
59571;SDS011;59406;45.602;11.904;2023-04-24T02:35:46;5.88;;;3.00;;
59571;SDS011;59406;45.602;11.904;2023-04-24T02:38:12;5.47;;;2.80;;
59571;SDS011;59406;45.602;11.904;2023-04-24T02:40:38;5.50;;;2.63;;
59571;SDS011;59406;45.602;11.904;2023-04-24T02:43:04;5.40;;;2.60;;
59571;SDS011;59406;45.602;11.904;2023-04-24T02:45:30;5.68;;;3.05;;
59571;SDS011;59406;45.602;11.904;2023-04-24T02:47:56;6.25;;;3.10;;
59571;SDS011;59406;45.602;11.904;2023-04-24T02:50:22;5.23;;;2.87;;
59571;SDS011;59406;45.602;11.904;2023-04-24T02:52:48;6.43;;;2.83;;
59571;SDS011;59406;45.602;11.904;2023-04-24T02:55:14;5.00;;;2.67;;
59571;SDS011;59406;45.602;11.904;2023-04-24T02:57:40;5.13;;;2.60;;
59571;SDS011;59406;45.602;11.904;2023-04-24T03:00:06;5.23;;;3.03;;
59571;SDS011;59406;45.602;11.904;2023-04-24T03:02:32;5.07;;;2.72;;
59571;SDS011;59406;45.602;11.904;2023-04-24T03:04:59;4.90;;;2.50;;
59571;SDS011;59406;45.602;11.904;2023-04-24T03:07:25;5.22;;;2.60;;
59571;SDS011;59406;45.602;11.904;2023-04-24T03:09:51;5.55;;;2.67;;
59571;SDS011;59406;45.602;11.904;2023-04-24T03:12:17;5.17;;;2.70;;
59571;SDS011;59406;45.602;11.904;2023-04-24T03:14:43;5.28;;;2.47;;
59571;SDS011;59406;45.602;11.904;2023-04-24T03:17:09;5.75;;;2.80;;
59571;SDS011;59406;45.602;11.904;2023-04-24T03:19:35;5.03;;;2.60;;
59571;SDS011;59406;45.602;11.904;2023-04-24T03:22:02;5.65;;;2.72;;
59571;SDS011;59406;45.602;11.904;2023-04-24T03:24:28;5.97;;;2.93;;
59571;SDS011;59406;45.602;11.904;2023-04-24T03:26:54;5.10;;;2.70;;
59571;SDS011;59406;45.602;11.904;2023-04-24T03:29:22;4.72;;;2.42;;
59571;SDS011;59406;45.602;11.904;2023-04-24T03:31:48;5.35;;;2.88;;
59571;SDS011;59406;45.602;11.904;2023-04-24T03:34:14;5.10;;;2.75;;
59571;SDS011;59406;45.602;11.904;2023-04-24T03:36:40;5.80;;;2.63;;
59571;SDS011;59406;45.602;11.904;2023-04-24T03:39:06;5.75;;;3.08;;
59571;SDS011;59406;45.602;11.904;2023-04-24T03:41:32;4.75;;;2.58;;
59571;SDS011;59406;45.602;11.904;2023-04-24T03:43:58;5.28;;;2.58;;
59571;SDS011;59406;45.602;11.904;2023-04-24T03:46:25;5.13;;;2.80;;
59571;SDS011;59406;45.602;11.904;2023-04-24T03:48:51;4.72;;;2.53;;
59571;SDS011;59406;45.602;11.904;2023-04-24T03:51:17;5.75;;;2.80;;
59571;SDS011;59406;45.602;11.904;2023-04-24T03:53:43;4.70;;;2.38;;
59571;SDS011;59406;45.602;11.904;2023-04-24T03:56:09;6.13;;;2.60;;
59571;SDS011;59406;45.602;11.904;2023-04-24T03:58:35;5.00;;;2.72;;
59571;SDS011;59406;45.602;11.904;2023-04-24T04:01:01;5.03;;;2.53;;
59571;SDS011;59406;45.602;11.904;2023-04-24T04:03:28;5.65;;;2.70;;
59571;SDS011;59406;45.602;11.904;2023-04-24T04:05:54;5.07;;;2.60;;
59571;SDS011;59406;45.602;11.904;2023-04-24T04:08:20;4.73;;;2.60;;
59571;SDS011;59406;45.602;11.904;2023-04-24T04:10:46;7.50;;;2.60;;
59571;SDS011;59406;45.602;11.904;2023-04-24T04:13:11;5.53;;;2.70;;
59571;SDS011;59406;45.602;11.904;2023-04-24T04:15:37;5.50;;;2.67;;
59571;SDS011;59406;45.602;11.904;2023-04-24T04:18:03;5.93;;;2.58;;
59571;SDS011;59406;45.602;11.904;2023-04-24T04:20:30;4.90;;;2.42;;
59571;SDS011;59406;45.602;11.904;2023-04-24T04:22:56;4.82;;;2.63;;
59571;SDS011;59406;45.602;11.904;2023-04-24T04:25:21;5.45;;;2.50;;
59571;SDS011;59406;45.602;11.904;2023-04-24T04:27:48;5.37;;;2.77;;
59571;SDS011;59406;45.602;11.904;2023-04-24T04:30:14;4.85;;;2.75;;
59571;SDS011;59406;45.602;11.904;2023-04-24T04:32:40;5.32;;;2.70;;
59571;SDS011;59406;45.602;11.904;2023-04-24T04:35:06;5.57;;;2.40;;
59571;SDS011;59406;45.602;11.904;2023-04-24T04:37:32;5.33;;;2.30;;
59571;SDS011;59406;45.602;11.904;2023-04-24T04:40:01;4.60;;;2.20;;
59571;SDS011;59406;45.602;11.904;2023-04-24T04:42:32;5.53;;;2.50;;
59571;SDS011;59406;45.602;11.904;2023-04-24T04:44:59;5.00;;;2.60;;
59571;SDS011;59406;45.602;11.904;2023-04-24T04:47:26;5.25;;;2.67;;
59571;SDS011;59406;45.602;11.904;2023-04-24T04:49:53;5.90;;;2.33;;
59571;SDS011;59406;45.602;11.904;2023-04-24T04:52:19;5.15;;;2.65;;
59571;SDS011;59406;45.602;11.904;2023-04-24T04:54:50;5.68;;;2.80;;
59571;SDS011;59406;45.602;11.904;2023-04-24T04:57:15;6.20;;;2.80;;
59571;SDS011;59406;45.602;11.904;2023-04-24T04:59:41;5.10;;;2.93;;
59571;SDS011;59406;45.602;11.904;2023-04-24T05:02:08;4.85;;;2.35;;
59571;SDS011;59406;45.602;11.904;2023-04-24T05:04:34;5.63;;;2.60;;
59571;SDS011;59406;45.602;11.904;2023-04-24T05:07:00;4.40;;;1.93;;
59571;SDS011;59406;45.602;11.904;2023-04-24T05:09:26;5.07;;;2.60;;
59571;SDS011;59406;45.602;11.904;2023-04-24T05:11:54;4.78;;;2.20;;
59571;SDS011;59406;45.602;11.904;2023-04-24T05:14:21;4.20;;;2.05;;
59571;SDS011;59406;45.602;11.904;2023-04-24T05:16:47;4.68;;;2.20;;
59571;SDS011;59406;45.602;11.904;2023-04-24T05:19:13;4.50;;;2.13;;
59571;SDS011;59406;45.602;11.904;2023-04-24T05:21:40;4.90;;;2.25;;
59571;SDS011;59406;45.602;11.904;2023-04-24T05:24:06;5.05;;;2.40;;
59571;SDS011;59406;45.602;11.904;2023-04-24T05:26:32;5.25;;;2.13;;
59571;SDS011;59406;45.602;11.904;2023-04-24T05:28:58;5.47;;;2.35;;
59571;SDS011;59406;45.602;11.904;2023-04-24T05:31:24;5.33;;;2.23;;
59571;SDS011;59406;45.602;11.904;2023-04-24T05:33:50;5.95;;;2.45;;
59571;SDS011;59406;45.602;11.904;2023-04-24T05:36:16;5.50;;;2.45;;
59571;SDS011;59406;45.602;11.904;2023-04-24T05:38:42;5.82;;;2.35;;
59571;SDS011;59406;45.602;11.904;2023-04-24T05:41:08;6.53;;;2.77;;
59571;SDS011;59406;45.602;11.904;2023-04-24T05:43:34;5.68;;;2.58;;
59571;SDS011;59406;45.602;11.904;2023-04-24T05:46:00;4.80;;;2.22;;
59571;SDS011;59406;45.602;11.904;2023-04-24T05:48:26;5.40;;;2.70;;
59571;SDS011;59406;45.602;11.904;2023-04-24T05:50:52;5.10;;;2.50;;
59571;SDS011;59406;45.602;11.904;2023-04-24T05:53:18;6.13;;;2.80;;
59571;SDS011;59406;45.602;11.904;2023-04-24T05:55:44;5.82;;;2.78;;
59571;SDS011;59406;45.602;11.904;2023-04-24T05:58:10;4.70;;;2.43;;
59571;SDS011;59406;45.602;11.904;2023-04-24T06:00:37;5.82;;;2.90;;
59571;SDS011;59406;45.602;11.904;2023-04-24T06:03:05;5.63;;;2.40;;
59571;SDS011;59406;45.602;11.904;2023-04-24T06:05:31;6.15;;;2.88;;
59571;SDS011;59406;45.602;11.904;2023-04-24T06:07:57;5.15;;;2.45;;
59571;SDS011;59406;45.602;11.904;2023-04-24T06:10:22;10.43;;;8.20;;
59571;SDS011;59406;45.602;11.904;2023-04-24T06:12:48;8.75;;;5.00;;
59571;SDS011;59406;45.602;11.904;2023-04-24T06:15:14;7.20;;;4.13;;
59571;SDS011;59406;45.602;11.904;2023-04-24T06:17:40;6.73;;;3.37;;
59571;SDS011;59406;45.602;11.904;2023-04-24T06:20:06;5.68;;;3.30;;
59571;SDS011;59406;45.602;11.904;2023-04-24T06:22:33;5.13;;;2.70;;
59571;SDS011;59406;45.602;11.904;2023-04-24T06:24:59;5.77;;;2.90;;
59571;SDS011;59406;45.602;11.904;2023-04-24T06:27:25;5.03;;;2.60;;
59571;SDS011;59406;45.602;11.904;2023-04-24T06:29:51;5.35;;;2.50;;
59571;SDS011;59406;45.602;11.904;2023-04-24T06:32:23;6.40;;;2.42;;
59571;SDS011;59406;45.602;11.904;2023-04-24T06:34:50;5.10;;;2.70;;
59571;SDS011;59406;45.602;11.904;2023-04-24T06:37:18;5.13;;;2.63;;
59571;SDS011;59406;45.602;11.904;2023-04-24T06:39:45;4.82;;;2.47;;
59571;SDS011;59406;45.602;11.904;2023-04-24T06:42:11;5.00;;;2.40;;
59571;SDS011;59406;45.602;11.904;2023-04-24T06:44:37;4.95;;;2.42;;
59571;SDS011;59406;45.602;11.904;2023-04-24T06:47:09;7.15;;;3.00;;
59571;SDS011;59406;45.602;11.904;2023-04-24T06:49:38;5.30;;;2.77;;
59571;SDS011;59406;45.602;11.904;2023-04-24T06:52:04;5.50;;;2.63;;
59571;SDS011;59406;45.602;11.904;2023-04-24T06:54:30;5.50;;;2.63;;
59571;SDS011;59406;45.602;11.904;2023-04-24T06:56:57;6.03;;;2.88;;
59571;SDS011;59406;45.602;11.904;2023-04-24T06:59:23;4.50;;;2.30;;
59571;SDS011;59406;45.602;11.904;2023-04-24T07:01:49;9.13;;;2.80;;
59571;SDS011;59406;45.602;11.904;2023-04-24T07:04:16;5.90;;;2.70;;
59571;SDS011;59406;45.602;11.904;2023-04-24T07:06:43;4.55;;;2.30;;
59571;SDS011;59406;45.602;11.904;2023-04-24T07:09:11;5.18;;;2.30;;
59571;SDS011;59406;45.602;11.904;2023-04-24T07:11:38;4.75;;;2.38;;
59571;SDS011;59406;45.602;11.904;2023-04-24T07:14:06;6.10;;;2.80;;
59571;SDS011;59406;45.602;11.904;2023-04-24T07:16:32;5.38;;;2.65;;
59571;SDS011;59406;45.602;11.904;2023-04-24T07:18:58;5.53;;;2.60;;
59571;SDS011;59406;45.602;11.904;2023-04-24T07:21:24;4.93;;;2.30;;
59571;SDS011;59406;45.602;11.904;2023-04-24T07:23:50;4.80;;;2.20;;
59571;SDS011;59406;45.602;11.904;2023-04-24T07:26:16;5.10;;;2.30;;
59571;SDS011;59406;45.602;11.904;2023-04-24T07:28:43;5.10;;;2.25;;
59571;SDS011;59406;45.602;11.904;2023-04-24T07:31:08;5.70;;;2.50;;
59571;SDS011;59406;45.602;11.904;2023-04-24T07:33:36;4.70;;;2.47;;
59571;SDS011;59406;45.602;11.904;2023-04-24T07:36:02;5.43;;;2.20;;
59571;SDS011;59406;45.602;11.904;2023-04-24T07:38:31;5.13;;;2.28;;
59571;SDS011;59406;45.602;11.904;2023-04-24T07:40:57;4.55;;;2.08;;
59571;SDS011;59406;45.602;11.904;2023-04-24T07:43:23;3.95;;;1.90;;
59571;SDS011;59406;45.602;11.904;2023-04-24T07:45:49;4.10;;;2.07;;
59571;SDS011;59406;45.602;11.904;2023-04-24T07:48:16;5.80;;;1.83;;
59571;SDS011;59406;45.602;11.904;2023-04-24T07:50:43;5.25;;;1.70;;
59571;SDS011;59406;45.602;11.904;2023-04-24T07:53:09;5.70;;;2.00;;
59571;SDS011;59406;45.602;11.904;2023-04-24T07:55:36;3.67;;;1.63;;
59571;SDS011;59406;45.602;11.904;2023-04-24T07:58:02;4.73;;;1.87;;
59571;SDS011;59406;45.602;11.904;2023-04-24T08:00:28;4.10;;;1.55;;
59571;SDS011;59406;45.602;11.904;2023-04-24T08:02:53;3.20;;;1.08;;
59571;SDS011;59406;45.602;11.904;2023-04-24T08:05:19;3.60;;;1.27;;
59571;SDS011;59406;45.602;11.904;2023-04-24T08:07:46;3.40;;;1.10;;
59571;SDS011;59406;45.602;11.904;2023-04-24T08:10:14;3.28;;;0.65;;
59571;SDS011;59406;45.602;11.904;2023-04-24T08:12:41;3.78;;;1.08;;
59571;SDS011;59406;45.602;11.904;2023-04-24T08:15:07;3.60;;;1.00;;
59571;SDS011;59406;45.602;11.904;2023-04-24T08:17:34;3.13;;;0.80;;
59571;SDS011;59406;45.602;11.904;2023-04-24T08:20:01;3.53;;;1.23;;
59571;SDS011;59406;45.602;11.904;2023-04-24T08:22:30;3.83;;;1.55;;
59571;SDS011;59406;45.602;11.904;2023-04-24T08:24:58;4.18;;;1.83;;
59571;SDS011;59406;45.602;11.904;2023-04-24T08:27:25;3.83;;;1.42;;
59571;SDS011;59406;45.602;11.904;2023-04-24T08:29:52;4.07;;;1.30;;
59571;SDS011;59406;45.602;11.904;2023-04-24T08:32:19;5.10;;;1.20;;
59571;SDS011;59406;45.602;11.904;2023-04-24T08:34:45;3.58;;;1.00;;
59571;SDS011;59406;45.602;11.904;2023-04-24T08:37:11;4.25;;;1.10;;
59571;SDS011;59406;45.602;11.904;2023-04-24T08:39:43;3.47;;;1.20;;
59571;SDS011;59406;45.602;11.904;2023-04-24T08:42:09;3.17;;;0.98;;
59571;SDS011;59406;45.602;11.904;2023-04-24T08:44:38;4.13;;;0.70;;
59571;SDS011;59406;45.602;11.904;2023-04-24T08:47:04;3.88;;;0.85;;
59571;SDS011;59406;45.602;11.904;2023-04-24T08:49:32;3.00;;;0.70;;
59571;SDS011;59406;45.602;11.904;2023-04-24T08:52:01;3.40;;;0.88;;
59571;SDS011;59406;45.602;11.904;2023-04-24T08:54:28;3.55;;;1.00;;
59571;SDS011;59406;45.602;11.904;2023-04-24T08:56:55;3.53;;;0.80;;
59571;SDS011;59406;45.602;11.904;2023-04-24T08:59:27;2.95;;;0.70;;
59571;SDS011;59406;45.602;11.904;2023-04-24T09:01:54;3.35;;;1.10;;
59571;SDS011;59406;45.602;11.904;2023-04-24T09:04:21;3.90;;;1.08;;
59571;SDS011;59406;45.602;11.904;2023-04-24T09:06:54;3.55;;;0.93;;
59571;SDS011;59406;45.602;11.904;2023-04-24T09:09:22;2.70;;;0.80;;
59571;SDS011;59406;45.602;11.904;2023-04-24T09:11:50;3.10;;;1.10;;
59571;SDS011;59406;45.602;11.904;2023-04-24T09:14:18;3.00;;;1.02;;
59571;SDS011;59406;45.602;11.904;2023-04-24T09:16:45;3.22;;;1.00;;
59571;SDS011;59406;45.602;11.904;2023-04-24T09:19:12;3.05;;;0.80;;
59571;SDS011;59406;45.602;11.904;2023-04-24T09:21:38;3.77;;;0.97;;
59571;SDS011;59406;45.602;11.904;2023-04-24T09:24:07;3.40;;;0.90;;
59571;SDS011;59406;45.602;11.904;2023-04-24T09:26:39;3.97;;;0.90;;
59571;SDS011;59406;45.602;11.904;2023-04-24T09:29:05;3.10;;;0.68;;
59571;SDS011;59406;45.602;11.904;2023-04-24T09:31:31;4.53;;;1.10;;
59571;SDS011;59406;45.602;11.904;2023-04-24T09:33:59;3.13;;;1.10;;
59571;SDS011;59406;45.602;11.904;2023-04-24T09:36:30;6.20;;;3.25;;
59571;SDS011;59406;45.602;11.904;2023-04-24T09:39:06;4.38;;;1.00;;
59571;SDS011;59406;45.602;11.904;2023-04-24T09:41:46;3.00;;;0.80;;
59571;SDS011;59406;45.602;11.904;2023-04-24T09:44:18;3.50;;;0.80;;
59571;SDS011;59406;45.602;11.904;2023-04-24T09:46:49;2.72;;;0.70;;
59571;SDS011;59406;45.602;11.904;2023-04-24T09:49:17;3.05;;;0.80;;
59571;SDS011;59406;45.602;11.904;2023-04-24T09:52:05;3.00;;;0.75;;
59571;SDS011;59406;45.602;11.904;2023-04-24T09:54:32;3.42;;;0.80;;
59571;SDS011;59406;45.602;11.904;2023-04-24T09:56:58;3.27;;;0.80;;
59571;SDS011;59406;45.602;11.904;2023-04-24T09:59:25;3.85;;;1.13;;
59571;SDS011;59406;45.602;11.904;2023-04-24T10:01:51;3.53;;;0.90;;
59571;SDS011;59406;45.602;11.904;2023-04-24T10:04:18;3.40;;;0.60;;
59571;SDS011;59406;45.602;11.904;2023-04-24T10:06:46;2.83;;;0.50;;
59571;SDS011;59406;45.602;11.904;2023-04-24T10:09:14;2.73;;;0.57;;
59571;SDS011;59406;45.602;11.904;2023-04-24T10:11:42;4.00;;;0.50;;
59571;SDS011;59406;45.602;11.904;2023-04-24T10:14:14;4.47;;;0.75;;
59571;SDS011;59406;45.602;11.904;2023-04-24T10:16:41;3.78;;;0.63;;
59571;SDS011;59406;45.602;11.904;2023-04-24T10:19:09;3.50;;;0.98;;
59571;SDS011;59406;45.602;11.904;2023-04-24T10:21:36;4.67;;;1.00;;
59571;SDS011;59406;45.602;11.904;2023-04-24T10:24:07;6.95;;;1.50;;
59571;SDS011;59406;45.602;11.904;2023-04-24T10:26:34;5.75;;;1.15;;
59571;SDS011;59406;45.602;11.904;2023-04-24T10:29:01;4.85;;;1.30;;
59571;SDS011;59406;45.602;11.904;2023-04-24T10:31:30;6.55;;;1.30;;
59571;SDS011;59406;45.602;11.904;2023-04-24T10:33:58;4.30;;;0.83;;
59571;SDS011;59406;45.602;11.904;2023-04-24T10:36:26;4.95;;;1.08;;
59571;SDS011;59406;45.602;11.904;2023-04-24T10:38:54;3.40;;;0.77;;
59571;SDS011;59406;45.602;11.904;2023-04-24T10:41:21;2.85;;;0.50;;
59571;SDS011;59406;45.602;11.904;2023-04-24T10:44:07;4.25;;;1.10;;
59571;SDS011;59406;45.602;11.904;2023-04-24T10:46:35;6.17;;;1.10;;
59571;SDS011;59406;45.602;11.904;2023-04-24T10:49:05;6.22;;;1.35;;
59571;SDS011;59406;45.602;11.904;2023-04-24T10:51:45;3.78;;;0.70;;
59571;SDS011;59406;45.602;11.904;2023-04-24T10:54:25;3.42;;;1.00;;
59571;SDS011;59406;45.602;11.904;2023-04-24T10:56:55;3.25;;;0.65;;
59571;SDS011;59406;45.602;11.904;2023-04-24T10:59:37;3.40;;;0.60;;
59571;SDS011;59406;45.602;11.904;2023-04-24T11:02:04;3.50;;;0.70;;
59571;SDS011;59406;45.602;11.904;2023-04-24T11:04:33;3.53;;;0.60;;
59571;SDS011;59406;45.602;11.904;2023-04-24T11:07:00;3.67;;;0.55;;
59571;SDS011;59406;45.602;11.904;2023-04-24T11:09:28;5.00;;;0.67;;
59571;SDS011;59406;45.602;11.904;2023-04-24T11:12:09;4.38;;;0.65;;
59571;SDS011;59406;45.602;11.904;2023-04-24T11:17:34;3.88;;;1.00;;
59571;SDS011;59406;45.602;11.904;2023-04-24T11:22:32;4.33;;;0.50;;
59571;SDS011;59406;45.602;11.904;2023-04-24T11:25:00;4.35;;;0.80;;
59571;SDS011;59406;45.602;11.904;2023-04-24T11:27:29;4.53;;;0.60;;
59571;SDS011;59406;45.602;11.904;2023-04-24T11:30:05;3.40;;;0.60;;
59571;SDS011;59406;45.602;11.904;2023-04-24T11:32:36;3.63;;;0.90;;
59571;SDS011;59406;45.602;11.904;2023-04-24T11:37:53;3.88;;;0.60;;
59571;SDS011;59406;45.602;11.904;2023-04-24T11:40:20;3.45;;;0.40;;
59571;SDS011;59406;45.602;11.904;2023-04-24T11:42:51;3.53;;;0.70;;
59571;SDS011;59406;45.602;11.904;2023-04-24T11:45:27;4.63;;;0.88;;
59571;SDS011;59406;45.602;11.904;2023-04-24T11:47:54;3.77;;;0.60;;
59571;SDS011;59406;45.602;11.904;2023-04-24T11:50:23;2.95;;;0.70;;
59571;SDS011;59406;45.602;11.904;2023-04-24T11:52:51;3.70;;;0.90;;
59571;SDS011;59406;45.602;11.904;2023-04-24T11:57:44;4.20;;;0.83;;
59571;SDS011;59406;45.602;11.904;2023-04-24T12:00:18;3.83;;;0.50;;
59571;SDS011;59406;45.602;11.904;2023-04-24T12:02:46;2.80;;;0.55;;
59571;SDS011;59406;45.602;11.904;2023-04-24T12:05:22;3.72;;;0.90;;
59571;SDS011;59406;45.602;11.904;2023-04-24T12:07:51;2.70;;;0.55;;
59571;SDS011;59406;45.602;11.904;2023-04-24T12:10:21;5.53;;;1.03;;
59571;SDS011;59406;45.602;11.904;2023-04-24T12:12:48;3.47;;;0.70;;
59571;SDS011;59406;45.602;11.904;2023-04-24T12:15:17;4.10;;;0.80;;
59571;SDS011;59406;45.602;11.904;2023-04-24T12:17:44;3.97;;;0.73;;
59571;SDS011;59406;45.602;11.904;2023-04-24T12:20:11;4.18;;;1.00;;
59571;SDS011;59406;45.602;11.904;2023-04-24T12:22:49;3.77;;;1.10;;
59571;SDS011;59406;45.602;11.904;2023-04-24T12:25:20;3.30;;;0.60;;
59571;SDS011;59406;45.602;11.904;2023-04-24T12:30:29;4.05;;;0.75;;
59571;SDS011;59406;45.602;11.904;2023-04-24T12:32:59;3.05;;;0.57;;
59571;SDS011;59406;45.602;11.904;2023-04-24T12:35:27;4.23;;;0.90;;
59571;SDS011;59406;45.602;11.904;2023-04-24T12:37:54;3.70;;;0.60;;
59571;SDS011;59406;45.602;11.904;2023-04-24T12:40:24;3.63;;;0.60;;
59571;SDS011;59406;45.602;11.904;2023-04-24T12:42:51;3.22;;;0.63;;
59571;SDS011;59406;45.602;11.904;2023-04-24T12:45:18;3.30;;;0.60;;
59571;SDS011;59406;45.602;11.904;2023-04-24T12:47:44;2.83;;;0.50;;
59571;SDS011;59406;45.602;11.904;2023-04-24T12:50:12;3.63;;;0.63;;
59571;SDS011;59406;45.602;11.904;2023-04-24T12:52:39;3.72;;;0.90;;
59571;SDS011;59406;45.602;11.904;2023-04-24T12:55:06;3.40;;;0.90;;
59571;SDS011;59406;45.602;11.904;2023-04-24T12:57:36;3.25;;;0.80;;
59571;SDS011;59406;45.602;11.904;2023-04-24T13:00:03;4.00;;;0.70;;
59571;SDS011;59406;45.602;11.904;2023-04-24T13:02:31;5.13;;;1.10;;
59571;SDS011;59406;45.602;11.904;2023-04-24T13:04:57;4.28;;;0.77;;
59571;SDS011;59406;45.602;11.904;2023-04-24T13:07:24;3.88;;;0.82;;
59571;SDS011;59406;45.602;11.904;2023-04-24T13:09:51;3.05;;;0.80;;
59571;SDS011;59406;45.602;11.904;2023-04-24T13:12:17;4.03;;;0.50;;
59571;SDS011;59406;45.602;11.904;2023-04-24T13:14:43;4.20;;;1.17;;
59571;SDS011;59406;45.602;11.904;2023-04-24T13:17:11;3.25;;;0.75;;
59571;SDS011;59406;45.602;11.904;2023-04-24T13:19:41;3.25;;;0.70;;
59571;SDS011;59406;45.602;11.904;2023-04-24T13:22:11;3.13;;;0.77;;
59571;SDS011;59406;45.602;11.904;2023-04-24T13:24:38;3.50;;;0.57;;
59571;SDS011;59406;45.602;11.904;2023-04-24T13:27:07;4.00;;;0.50;;
59571;SDS011;59406;45.602;11.904;2023-04-24T13:29:34;4.18;;;0.70;;
59571;SDS011;59406;45.602;11.904;2023-04-24T13:32:00;2.92;;;0.50;;
59571;SDS011;59406;45.602;11.904;2023-04-24T13:34:26;3.22;;;0.70;;
59571;SDS011;59406;45.602;11.904;2023-04-24T13:36:55;4.13;;;0.80;;
59571;SDS011;59406;45.602;11.904;2023-04-24T13:39:23;4.03;;;0.68;;
59571;SDS011;59406;45.602;11.904;2023-04-24T13:41:50;3.25;;;0.60;;
59571;SDS011;59406;45.602;11.904;2023-04-24T13:44:16;2.97;;;0.70;;
59571;SDS011;59406;45.602;11.904;2023-04-24T13:46:44;3.38;;;0.65;;
59571;SDS011;59406;45.602;11.904;2023-04-24T13:49:14;4.07;;;1.10;;
59571;SDS011;59406;45.602;11.904;2023-04-24T13:51:41;5.10;;;1.52;;
59571;SDS011;59406;45.602;11.904;2023-04-24T13:54:07;8.02;;;2.63;;
59571;SDS011;59406;45.602;11.904;2023-04-24T13:56:33;5.45;;;1.60;;
59571;SDS011;59406;45.602;11.904;2023-04-24T13:58:59;5.47;;;1.70;;
59571;SDS011;59406;45.602;11.904;2023-04-24T14:01:26;6.35;;;1.70;;
59571;SDS011;59406;45.602;11.904;2023-04-24T14:03:52;7.43;;;2.53;;
59571;SDS011;59406;45.602;11.904;2023-04-24T14:06:19;4.75;;;1.45;;
59571;SDS011;59406;45.602;11.904;2023-04-24T14:08:45;5.95;;;1.90;;
59571;SDS011;59406;45.602;11.904;2023-04-24T14:11:12;5.70;;;2.00;;
59571;SDS011;59406;45.602;11.904;2023-04-24T14:13:38;5.97;;;1.90;;
59571;SDS011;59406;45.602;11.904;2023-04-24T14:16:05;6.10;;;1.98;;
59571;SDS011;59406;45.602;11.904;2023-04-24T14:18:32;6.25;;;1.90;;
59571;SDS011;59406;45.602;11.904;2023-04-24T14:20:58;6.57;;;1.87;;
59571;SDS011;59406;45.602;11.904;2023-04-24T14:23:25;5.07;;;1.40;;
59571;SDS011;59406;45.602;11.904;2023-04-24T14:25:51;4.82;;;1.48;;
59571;SDS011;59406;45.602;11.904;2023-04-24T14:28:18;5.90;;;1.52;;
59571;SDS011;59406;45.602;11.904;2023-04-24T14:30:47;5.45;;;1.30;;
59571;SDS011;59406;45.602;11.904;2023-04-24T14:33:13;5.10;;;1.70;;
59571;SDS011;59406;45.602;11.904;2023-04-24T14:35:40;5.55;;;1.20;;
59571;SDS011;59406;45.602;11.904;2023-04-24T14:38:09;4.75;;;1.35;;
59571;SDS011;59406;45.602;11.904;2023-04-24T14:40:35;4.43;;;1.15;;
59571;SDS011;59406;45.602;11.904;2023-04-24T14:43:02;3.83;;;1.15;;
59571;SDS011;59406;45.602;11.904;2023-04-24T14:45:28;4.63;;;0.90;;
59571;SDS011;59406;45.602;11.904;2023-04-24T14:47:55;4.35;;;0.88;;